sensor_id;sensor_type;location;lat;lon;timestamp;temperature;humidity
10192;DHT22;17580;50.850;4.504;2023-03-02T00:00:43;1.30;28.60
10192;DHT22;17580;50.850;4.504;2023-03-02T00:03:12;1.40;30.50
10192;DHT22;17580;50.850;4.504;2023-03-02T00:05:43;1.30;30.60
10192;DHT22;17580;50.850;4.504;2023-03-02T00:08:13;1.30;30.60
10192;DHT22;17580;50.850;4.504;2023-03-02T00:10:41;1.20;30.60
10192;DHT22;17580;50.850;4.504;2023-03-02T00:13:10;1.30;29.90
10192;DHT22;17580;50.850;4.504;2023-03-02T00:15:37;1.10;30.00
10192;DHT22;17580;50.850;4.504;2023-03-02T00:18:04;1.20;30.00
10192;DHT22;17580;50.850;4.504;2023-03-02T00:20:32;1.10;31.20
10192;DHT22;17580;50.850;4.504;2023-03-02T00:23:00;1.20;32.50
10192;DHT22;17580;50.850;4.504;2023-03-02T00:25:27;1.20;32.30
10192;DHT22;17580;50.850;4.504;2023-03-02T00:27:54;1.20;31.40
10192;DHT22;17580;50.850;4.504;2023-03-02T00:30:23;1.20;32.20
10192;DHT22;17580;50.850;4.504;2023-03-02T00:32:50;1.20;32.30
10192;DHT22;17580;50.850;4.504;2023-03-02T00:35:17;1.30;32.30
10192;DHT22;17580;50.850;4.504;2023-03-02T00:37:44;1.30;32.40
10192;DHT22;17580;50.850;4.504;2023-03-02T00:40:12;1.20;32.00
10192;DHT22;17580;50.850;4.504;2023-03-02T00:42:39;1.10;32.70
10192;DHT22;17580;50.850;4.504;2023-03-02T00:45:07;1.20;33.30
10192;DHT22;17580;50.850;4.504;2023-03-02T00:47:36;1.10;32.60
10192;DHT22;17580;50.850;4.504;2023-03-02T00:50:04;1.10;32.20
10192;DHT22;17580;50.850;4.504;2023-03-02T00:52:32;1.00;32.20
10192;DHT22;17580;50.850;4.504;2023-03-02T00:54:59;1.10;33.30
10192;DHT22;17580;50.850;4.504;2023-03-02T00:57:26;0.90;33.90
10192;DHT22;17580;50.850;4.504;2023-03-02T00:59:53;1.00;34.60
10192;DHT22;17580;50.850;4.504;2023-03-02T01:02:20;0.90;34.10
10192;DHT22;17580;50.850;4.504;2023-03-02T01:04:49;0.80;34.30
10192;DHT22;17580;50.850;4.504;2023-03-02T01:07:18;0.80;34.70
10192;DHT22;17580;50.850;4.504;2023-03-02T01:09:46;0.90;34.70
10192;DHT22;17580;50.850;4.504;2023-03-02T01:12:14;0.90;35.40
10192;DHT22;17580;50.850;4.504;2023-03-02T01:14:44;0.70;35.00
10192;DHT22;17580;50.850;4.504;2023-03-02T01:17:12;0.70;36.30
10192;DHT22;17580;50.850;4.504;2023-03-02T01:19:40;0.80;36.60
10192;DHT22;17580;50.850;4.504;2023-03-02T01:22:09;0.70;36.80
10192;DHT22;17580;50.850;4.504;2023-03-02T01:24:36;0.60;36.60
10192;DHT22;17580;50.850;4.504;2023-03-02T01:27:03;0.60;36.80
10192;DHT22;17580;50.850;4.504;2023-03-02T01:29:30;0.60;37.80
10192;DHT22;17580;50.850;4.504;2023-03-02T01:31:57;0.60;37.80
10192;DHT22;17580;50.850;4.504;2023-03-02T01:34:25;0.60;38.00
10192;DHT22;17580;50.850;4.504;2023-03-02T01:36:52;0.60;38.20
10192;DHT22;17580;50.850;4.504;2023-03-02T01:39:21;0.60;38.00
10192;DHT22;17580;50.850;4.504;2023-03-02T01:41:50;0.60;38.00
10192;DHT22;17580;50.850;4.504;2023-03-02T01:44:35;0.40;39.00
10192;DHT22;17580;50.850;4.504;2023-03-02T01:47:03;0.50;39.20
10192;DHT22;17580;50.850;4.504;2023-03-02T01:49:42;0.50;39.50
10192;DHT22;17580;50.850;4.504;2023-03-02T01:52:11;0.50;38.80
10192;DHT22;17580;50.850;4.504;2023-03-02T01:54:40;0.60;40.30
10192;DHT22;17580;50.850;4.504;2023-03-02T01:57:09;0.40;38.90
10192;DHT22;17580;50.850;4.504;2023-03-02T01:59:38;0.40;39.80
10192;DHT22;17580;50.850;4.504;2023-03-02T02:02:08;0.50;40.20
10192;DHT22;17580;50.850;4.504;2023-03-02T02:04:38;0.60;40.60
10192;DHT22;17580;50.850;4.504;2023-03-02T02:07:07;0.40;39.90
10192;DHT22;17580;50.850;4.504;2023-03-02T02:09:39;0.50;40.60
10192;DHT22;17580;50.850;4.504;2023-03-02T02:12:12;0.30;40.00
10192;DHT22;17580;50.850;4.504;2023-03-02T02:14:39;0.50;41.80
10192;DHT22;17580;50.850;4.504;2023-03-02T02:17:07;0.40;42.60
10192;DHT22;17580;50.850;4.504;2023-03-02T02:19:42;0.40;41.60
10192;DHT22;17580;50.850;4.504;2023-03-02T02:22:14;0.40;41.60
10192;DHT22;17580;50.850;4.504;2023-03-02T02:24:52;0.40;41.50
10192;DHT22;17580;50.850;4.504;2023-03-02T02:27:23;0.20;41.50
10192;DHT22;17580;50.850;4.504;2023-03-02T02:30:00;0.30;42.20
10192;DHT22;17580;50.850;4.504;2023-03-02T02:32:31;0.30;42.10
10192;DHT22;17580;50.850;4.504;2023-03-02T02:35:03;0.10;43.00
10192;DHT22;17580;50.850;4.504;2023-03-02T02:37:34;0.20;42.90
10192;DHT22;17580;50.850;4.504;2023-03-02T02:40:05;0.30;43.40
10192;DHT22;17580;50.850;4.504;2023-03-02T02:42:37;0.20;44.30
10192;DHT22;17580;50.850;4.504;2023-03-02T02:45:13;0.10;43.70
10192;DHT22;17580;50.850;4.504;2023-03-02T02:47:43;0.20;44.00
10192;DHT22;17580;50.850;4.504;2023-03-02T02:50:16;0.10;43.70
10192;DHT22;17580;50.850;4.504;2023-03-02T02:52:45;0.10;44.00
10192;DHT22;17580;50.850;4.504;2023-03-02T02:55:15;0.30;45.10
10192;DHT22;17580;50.850;4.504;2023-03-02T02:57:48;0.20;44.80
10192;DHT22;17580;50.850;4.504;2023-03-02T03:00:18;0.10;44.10
10192;DHT22;17580;50.850;4.504;2023-03-02T03:02:49;0.20;45.10
10192;DHT22;17580;50.850;4.504;2023-03-02T03:05:17;0.10;44.90
10192;DHT22;17580;50.850;4.504;2023-03-02T03:07:44;0.20;45.00
10192;DHT22;17580;50.850;4.504;2023-03-02T03:10:14;0.00;44.80
10192;DHT22;17580;50.850;4.504;2023-03-02T03:12:43;0.20;45.80
10192;DHT22;17580;50.850;4.504;2023-03-02T03:15:13;0.20;45.60
10192;DHT22;17580;50.850;4.504;2023-03-02T03:17:40;0.20;45.50
10192;DHT22;17580;50.850;4.504;2023-03-02T03:20:15;0.10;46.10
10192;DHT22;17580;50.850;4.504;2023-03-02T03:22:42;0.20;45.80
10192;DHT22;17580;50.850;4.504;2023-03-02T03:25:09;0.00;46.10
10192;DHT22;17580;50.850;4.504;2023-03-02T03:27:40;0.00;45.90
10192;DHT22;17580;50.850;4.504;2023-03-02T03:30:10;-0.10;46.50
10192;DHT22;17580;50.850;4.504;2023-03-02T03:32:41;0.20;46.90
10192;DHT22;17580;50.850;4.504;2023-03-02T03:35:09;0.00;46.80
10192;DHT22;17580;50.850;4.504;2023-03-02T03:37:37;0.00;47.10
10192;DHT22;17580;50.850;4.504;2023-03-02T03:40:07;-0.10;48.10
10192;DHT22;17580;50.850;4.504;2023-03-02T03:42:37;0.10;49.30
10192;DHT22;17580;50.850;4.504;2023-03-02T03:45:05;0.10;49.80
10192;DHT22;17580;50.850;4.504;2023-03-02T03:47:33;0.00;49.50
10192;DHT22;17580;50.850;4.504;2023-03-02T03:50:01;0.00;49.70
10192;DHT22;17580;50.850;4.504;2023-03-02T03:52:28;-0.10;49.90
10192;DHT22;17580;50.850;4.504;2023-03-02T03:54:56;-0.10;49.90
10192;DHT22;17580;50.850;4.504;2023-03-02T03:57:24;0.00;49.90
10192;DHT22;17580;50.850;4.504;2023-03-02T03:59:51;-0.10;49.50
10192;DHT22;17580;50.850;4.504;2023-03-02T04:02:18;-0.10;50.00
10192;DHT22;17580;50.850;4.504;2023-03-02T04:04:46;-0.10;49.80
10192;DHT22;17580;50.850;4.504;2023-03-02T04:07:14;-0.20;49.70
10192;DHT22;17580;50.850;4.504;2023-03-02T04:09:41;0.00;49.90
10192;DHT22;17580;50.850;4.504;2023-03-02T04:12:10;-0.20;49.80
10192;DHT22;17580;50.850;4.504;2023-03-02T04:14:38;-0.10;50.10
10192;DHT22;17580;50.850;4.504;2023-03-02T04:17:05;0.00;50.20
10192;DHT22;17580;50.850;4.504;2023-03-02T04:19:32;0.00;50.10
10192;DHT22;17580;50.850;4.504;2023-03-02T04:22:00;0.00;50.00
10192;DHT22;17580;50.850;4.504;2023-03-02T04:24:30;0.00;49.60
10192;DHT22;17580;50.850;4.504;2023-03-02T04:26:57;0.00;50.00
10192;DHT22;17580;50.850;4.504;2023-03-02T04:29:24;0.00;50.60
10192;DHT22;17580;50.850;4.504;2023-03-02T04:31:51;-0.10;50.50
10192;DHT22;17580;50.850;4.504;2023-03-02T04:34:18;-0.30;51.40
10192;DHT22;17580;50.850;4.504;2023-03-02T04:36:45;-0.10;51.90
10192;DHT22;17580;50.850;4.504;2023-03-02T04:39:14;-0.10;51.10
10192;DHT22;17580;50.850;4.504;2023-03-02T04:41:43;-0.10;51.70
10192;DHT22;17580;50.850;4.504;2023-03-02T04:44:11;-0.10;52.10
10192;DHT22;17580;50.850;4.504;2023-03-02T04:46:38;-0.10;52.30
10192;DHT22;17580;50.850;4.504;2023-03-02T04:49:05;-0.30;51.10
10192;DHT22;17580;50.850;4.504;2023-03-02T04:51:34;-0.20;52.00
10192;DHT22;17580;50.850;4.504;2023-03-02T04:54:04;-0.20;52.30
10192;DHT22;17580;50.850;4.504;2023-03-02T04:56:31;-0.10;52.80
10192;DHT22;17580;50.850;4.504;2023-03-02T04:59:00;-0.20;52.70
10192;DHT22;17580;50.850;4.504;2023-03-02T05:01:27;-0.10;53.30
10192;DHT22;17580;50.850;4.504;2023-03-02T05:03:54;-0.10;53.60
10192;DHT22;17580;50.850;4.504;2023-03-02T05:06:21;-0.10;53.10
10192;DHT22;17580;50.850;4.504;2023-03-02T05:08:49;-0.10;53.70
10192;DHT22;17580;50.850;4.504;2023-03-02T05:11:17;-0.20;53.40
10192;DHT22;17580;50.850;4.504;2023-03-02T05:13:48;0.00;54.30
10192;DHT22;17580;50.850;4.504;2023-03-02T05:16:17;-0.20;53.70
10192;DHT22;17580;50.850;4.504;2023-03-02T05:18:44;-0.10;53.60
10192;DHT22;17580;50.850;4.504;2023-03-02T05:21:12;-0.20;54.10
10192;DHT22;17580;50.850;4.504;2023-03-02T05:23:40;-0.40;54.90
10192;DHT22;17580;50.850;4.504;2023-03-02T05:26:08;-0.20;55.20
10192;DHT22;17580;50.850;4.504;2023-03-02T05:28:35;-0.20;55.30
10192;DHT22;17580;50.850;4.504;2023-03-02T05:31:02;-0.30;55.50
10192;DHT22;17580;50.850;4.504;2023-03-02T05:33:31;-0.30;55.00
10192;DHT22;17580;50.850;4.504;2023-03-02T05:35:58;-0.10;55.80
10192;DHT22;17580;50.850;4.504;2023-03-02T05:38:26;-0.10;55.60
10192;DHT22;17580;50.850;4.504;2023-03-02T05:40:56;0.00;55.50
10192;DHT22;17580;50.850;4.504;2023-03-02T05:43:23;-0.20;55.30
10192;DHT22;17580;50.850;4.504;2023-03-02T05:45:50;-0.20;56.00
10192;DHT22;17580;50.850;4.504;2023-03-02T05:48:17;-0.20;55.90
10192;DHT22;17580;50.850;4.504;2023-03-02T05:50:45;-0.30;56.60
10192;DHT22;17580;50.850;4.504;2023-03-02T05:53:12;-0.10;56.40
10192;DHT22;17580;50.850;4.504;2023-03-02T05:55:39;-0.20;56.80
10192;DHT22;17580;50.850;4.504;2023-03-02T05:58:11;-0.30;56.70
10192;DHT22;17580;50.850;4.504;2023-03-02T06:00:39;-0.20;56.90
10192;DHT22;17580;50.850;4.504;2023-03-02T06:03:06;-0.20;57.60
10192;DHT22;17580;50.850;4.504;2023-03-02T06:05:33;-0.40;58.10
10192;DHT22;17580;50.850;4.504;2023-03-02T06:08:02;-0.10;57.70
10192;DHT22;17580;50.850;4.504;2023-03-02T06:10:29;-0.20;57.70
10192;DHT22;17580;50.850;4.504;2023-03-02T06:12:56;-0.10;56.90
10192;DHT22;17580;50.850;4.504;2023-03-02T06:15:23;-0.20;56.90
10192;DHT22;17580;50.850;4.504;2023-03-02T06:17:54;-0.20;57.10
10192;DHT22;17580;50.850;4.504;2023-03-02T06:20:21;-0.30;57.10
10192;DHT22;17580;50.850;4.504;2023-03-02T06:22:48;-0.20;57.90
10192;DHT22;17580;50.850;4.504;2023-03-02T06:25:19;-0.10;57.40
10192;DHT22;17580;50.850;4.504;2023-03-02T06:27:46;-0.10;57.70
10192;DHT22;17580;50.850;4.504;2023-03-02T06:30:17;-0.10;57.80
10192;DHT22;17580;50.850;4.504;2023-03-02T06:32:44;-0.20;57.60
10192;DHT22;17580;50.850;4.504;2023-03-02T06:35:12;-0.20;57.30
10192;DHT22;17580;50.850;4.504;2023-03-02T06:37:39;-0.20;57.20
10192;DHT22;17580;50.850;4.504;2023-03-02T06:40:08;-0.30;58.10
10192;DHT22;17580;50.850;4.504;2023-03-02T06:42:38;-0.30;57.60
10192;DHT22;17580;50.850;4.504;2023-03-02T06:45:06;-0.20;58.20
10192;DHT22;17580;50.850;4.504;2023-03-02T06:47:34;-0.30;58.50
10192;DHT22;17580;50.850;4.504;2023-03-02T06:50:01;-0.20;59.20
10192;DHT22;17580;50.850;4.504;2023-03-02T06:52:28;-0.20;58.60
10192;DHT22;17580;50.850;4.504;2023-03-02T06:54:55;-0.10;59.30
10192;DHT22;17580;50.850;4.504;2023-03-02T06:57:22;0.00;59.50
10192;DHT22;17580;50.850;4.504;2023-03-02T06:59:51;-0.10;58.80
10192;DHT22;17580;50.850;4.504;2023-03-02T07:02:18;0.00;58.80
10192;DHT22;17580;50.850;4.504;2023-03-02T07:04:45;0.10;59.10
10192;DHT22;17580;50.850;4.504;2023-03-02T07:07:12;0.40;58.80
10192;DHT22;17580;50.850;4.504;2023-03-02T07:09:39;0.40;57.70
10192;DHT22;17580;50.850;4.504;2023-03-02T07:12:06;0.30;58.00
10192;DHT22;17580;50.850;4.504;2023-03-02T07:14:34;0.40;57.90
10192;DHT22;17580;50.850;4.504;2023-03-02T07:17:04;0.40;58.10
10192;DHT22;17580;50.850;4.504;2023-03-02T07:19:31;0.40;58.10
10192;DHT22;17580;50.850;4.504;2023-03-02T07:21:58;0.30;54.30
10192;DHT22;17580;50.850;4.504;2023-03-02T07:24:25;0.40;53.70
10192;DHT22;17580;50.850;4.504;2023-03-02T07:26:52;0.50;53.80
10192;DHT22;17580;50.850;4.504;2023-03-02T07:29:19;0.70;53.30
10192;DHT22;17580;50.850;4.504;2023-03-02T07:31:46;0.80;52.90
10192;DHT22;17580;50.850;4.504;2023-03-02T07:34:15;0.70;52.40
10192;DHT22;17580;50.850;4.504;2023-03-02T07:36:42;0.90;52.90
10192;DHT22;17580;50.850;4.504;2023-03-02T07:39:09;1.00;52.60
10192;DHT22;17580;50.850;4.504;2023-03-02T07:41:35;1.00;50.80
10192;DHT22;17580;50.850;4.504;2023-03-02T07:44:03;1.20;51.60
10192;DHT22;17580;50.850;4.504;2023-03-02T07:46:30;1.10;50.50
10192;DHT22;17580;50.850;4.504;2023-03-02T07:48:57;1.20;50.80
10192;DHT22;17580;50.850;4.504;2023-03-02T07:51:26;1.40;49.90
10192;DHT22;17580;50.850;4.504;2023-03-02T07:53:53;1.50;49.70
10192;DHT22;17580;50.850;4.504;2023-03-02T07:56:20;1.60;49.20
10192;DHT22;17580;50.850;4.504;2023-03-02T07:58:47;1.50;48.60
10192;DHT22;17580;50.850;4.504;2023-03-02T08:01:14;1.90;49.60
10192;DHT22;17580;50.850;4.504;2023-03-02T08:03:41;2.30;47.90
10192;DHT22;17580;50.850;4.504;2023-03-02T08:06:10;2.40;46.30
10192;DHT22;17580;50.850;4.504;2023-03-02T08:08:38;2.50;45.50
10192;DHT22;17580;50.850;4.504;2023-03-02T08:11:06;2.30;44.80
10192;DHT22;17580;50.850;4.504;2023-03-02T08:13:34;2.50;44.80
10192;DHT22;17580;50.850;4.504;2023-03-02T08:16:02;2.90;44.50
10192;DHT22;17580;50.850;4.504;2023-03-02T08:18:30;3.50;43.20
10192;DHT22;17580;50.850;4.504;2023-03-02T08:20:57;3.80;40.30
10192;DHT22;17580;50.850;4.504;2023-03-02T08:23:25;3.90;37.90
10192;DHT22;17580;50.850;4.504;2023-03-02T08:25:54;3.80;39.00
10192;DHT22;17580;50.850;4.504;2023-03-02T08:28:22;4.00;38.30
10192;DHT22;17580;50.850;4.504;2023-03-02T08:30:54;4.30;37.30
10192;DHT22;17580;50.850;4.504;2023-03-02T08:33:22;5.00;36.00
10192;DHT22;17580;50.850;4.504;2023-03-02T08:35:56;4.80;34.80
10192;DHT22;17580;50.850;4.504;2023-03-02T08:38:24;5.00;33.60
10192;DHT22;17580;50.850;4.504;2023-03-02T08:40:53;5.30;33.50
10192;DHT22;17580;50.850;4.504;2023-03-02T08:43:23;5.30;32.80
10192;DHT22;17580;50.850;4.504;2023-03-02T08:45:51;5.90;31.50
10192;DHT22;17580;50.850;4.504;2023-03-02T08:48:18;6.90;29.00
10192;DHT22;17580;50.850;4.504;2023-03-02T08:50:53;8.00;27.20
10192;DHT22;17580;50.850;4.504;2023-03-02T08:53:20;8.60;23.80
10192;DHT22;17580;50.850;4.504;2023-03-02T08:55:47;9.10;22.10
10192;DHT22;17580;50.850;4.504;2023-03-02T08:58:16;10.00;19.30
10192;DHT22;17580;50.850;4.504;2023-03-02T09:00:43;10.50;17.80
10192;DHT22;17580;50.850;4.504;2023-03-02T09:03:10;10.90;15.40
10192;DHT22;17580;50.850;4.504;2023-03-02T09:05:37;10.80;14.30
10192;DHT22;17580;50.850;4.504;2023-03-02T09:08:05;11.20;13.90
10192;DHT22;17580;50.850;4.504;2023-03-02T09:10:32;11.70;11.80
10192;DHT22;17580;50.850;4.504;2023-03-02T09:12:59;12.10;11.20
10192;DHT22;17580;50.850;4.504;2023-03-02T09:15:28;12.30;10.60
10192;DHT22;17580;50.850;4.504;2023-03-02T09:17:55;12.70;8.90
10192;DHT22;17580;50.850;4.504;2023-03-02T09:20:22;12.50;8.60
10192;DHT22;17580;50.850;4.504;2023-03-02T09:22:49;12.60;8.40
10192;DHT22;17580;50.850;4.504;2023-03-02T09:25:17;12.90;7.60
10192;DHT22;17580;50.850;4.504;2023-03-02T09:27:45;13.40;7.00
10192;DHT22;17580;50.850;4.504;2023-03-02T09:30:13;13.30;5.70
10192;DHT22;17580;50.850;4.504;2023-03-02T09:32:42;13.60;6.30
10192;DHT22;17580;50.850;4.504;2023-03-02T09:35:09;13.80;4.60
10192;DHT22;17580;50.850;4.504;2023-03-02T09:37:36;14.30;3.80
10192;DHT22;17580;50.850;4.504;2023-03-02T09:40:08;14.70;2.50
10192;DHT22;17580;50.850;4.504;2023-03-02T09:45:54;14.60;1.20
10192;DHT22;17580;50.850;4.504;2023-03-02T09:48:34;14.50;1.90
10192;DHT22;17580;50.850;4.504;2023-03-02T09:51:24;15.10;1.00
10192;DHT22;17580;50.850;4.504;2023-03-02T09:54:00;14.90;1.00
10192;DHT22;17580;50.850;4.504;2023-03-02T09:56:29;14.60;1.00
10192;DHT22;17580;50.850;4.504;2023-03-02T09:59:01;15.50;1.00
10192;DHT22;17580;50.850;4.504;2023-03-02T10:01:35;15.70;1.00
10192;DHT22;17580;50.850;4.504;2023-03-02T10:04:20;14.90;1.00
10192;DHT22;17580;50.850;4.504;2023-03-02T10:06:54;14.60;1.00
10192;DHT22;17580;50.850;4.504;2023-03-02T10:09:21;14.10;1.00
10192;DHT22;17580;50.850;4.504;2023-03-02T10:12:20;14.10;1.00
10192;DHT22;17580;50.850;4.504;2023-03-02T10:14:55;14.00;1.00
10192;DHT22;17580;50.850;4.504;2023-03-02T10:17:38;14.40;1.00
10192;DHT22;17580;50.850;4.504;2023-03-02T10:20:13;15.20;1.00
10192;DHT22;17580;50.850;4.504;2023-03-02T10:22:45;15.30;1.00
10192;DHT22;17580;50.850;4.504;2023-03-02T10:25:22;15.30;1.00
10192;DHT22;17580;50.850;4.504;2023-03-02T10:27:52;15.40;1.00
10192;DHT22;17580;50.850;4.504;2023-03-02T10:30:27;15.50;1.00
10192;DHT22;17580;50.850;4.504;2023-03-02T10:32:59;15.60;1.00
10192;DHT22;17580;50.850;4.504;2023-03-02T10:35:29;16.00;1.00
10192;DHT22;17580;50.850;4.504;2023-03-02T10:37:59;16.00;1.00
10192;DHT22;17580;50.850;4.504;2023-03-02T10:40:38;16.00;1.00
10192;DHT22;17580;50.850;4.504;2023-03-02T10:43:13;16.10;1.00
10192;DHT22;17580;50.850;4.504;2023-03-02T10:45:41;16.00;1.00
10192;DHT22;17580;50.850;4.504;2023-03-02T10:48:10;16.20;1.00
10192;DHT22;17580;50.850;4.504;2023-03-02T10:50:38;16.80;1.00
10192;DHT22;17580;50.850;4.504;2023-03-02T10:53:06;17.10;1.00
10192;DHT22;17580;50.850;4.504;2023-03-02T10:55:34;17.00;1.00
10192;DHT22;17580;50.850;4.504;2023-03-02T10:58:04;17.00;1.00
10192;DHT22;17580;50.850;4.504;2023-03-02T11:00:32;16.80;1.00
10192;DHT22;17580;50.850;4.504;2023-03-02T11:03:04;16.60;1.00
10192;DHT22;17580;50.850;4.504;2023-03-02T11:05:33;16.90;1.00
10192;DHT22;17580;50.850;4.504;2023-03-02T11:08:04;16.50;1.00
10192;DHT22;17580;50.850;4.504;2023-03-02T11:10:33;16.80;1.00
10192;DHT22;17580;50.850;4.504;2023-03-02T11:13:02;16.70;1.00
10192;DHT22;17580;50.850;4.504;2023-03-02T11:15:38;16.80;1.00
10192;DHT22;17580;50.850;4.504;2023-03-02T11:18:12;17.00;1.00
10192;DHT22;17580;50.850;4.504;2023-03-02T11:20:47;17.30;1.00
10192;DHT22;17580;50.850;4.504;2023-03-02T11:23:22;17.40;1.00
10192;DHT22;17580;50.850;4.504;2023-03-02T11:25:53;17.20;1.00
10192;DHT22;17580;50.850;4.504;2023-03-02T11:28:33;17.00;1.00
10192;DHT22;17580;50.850;4.504;2023-03-02T11:31:04;17.40;1.00
10192;DHT22;17580;50.850;4.504;2023-03-02T11:33:36;16.90;1.00
10192;DHT22;17580;50.850;4.504;2023-03-02T11:36:08;16.90;1.00
10192;DHT22;17580;50.850;4.504;2023-03-02T11:38:45;17.50;1.00
10192;DHT22;17580;50.850;4.504;2023-03-02T11:41:21;17.30;1.00
10192;DHT22;17580;50.850;4.504;2023-03-02T11:43:52;17.60;1.00
10192;DHT22;17580;50.850;4.504;2023-03-02T11:46:23;17.60;1.00
10192;DHT22;17580;50.850;4.504;2023-03-02T11:48:54;17.50;1.00
10192;DHT22;17580;50.850;4.504;2023-03-02T11:51:23;17.50;1.00
10192;DHT22;17580;50.850;4.504;2023-03-02T11:53:56;17.40;1.00
10192;DHT22;17580;50.850;4.504;2023-03-02T11:56:25;17.70;1.00
10192;DHT22;17580;50.850;4.504;2023-03-02T11:58:58;17.80;1.00
10192;DHT22;17580;50.850;4.504;2023-03-02T12:01:26;17.10;1.00
10192;DHT22;17580;50.850;4.504;2023-03-02T12:04:04;17.20;1.00
10192;DHT22;17580;50.850;4.504;2023-03-02T12:06:38;17.00;1.00
10192;DHT22;17580;50.850;4.504;2023-03-02T12:09:29;17.00;1.00
10192;DHT22;17580;50.850;4.504;2023-03-02T12:11:59;17.00;1.00
10192;DHT22;17580;50.850;4.504;2023-03-02T12:14:36;16.90;1.00
10192;DHT22;17580;50.850;4.504;2023-03-02T12:17:05;17.00;1.00
10192;DHT22;17580;50.850;4.504;2023-03-02T12:19:39;17.10;1.00
10192;DHT22;17580;50.850;4.504;2023-03-02T12:22:08;16.90;1.00
10192;DHT22;17580;50.850;4.504;2023-03-02T12:24:40;16.80;1.00
10192;DHT22;17580;50.850;4.504;2023-03-02T12:27:23;16.70;1.00
10192;DHT22;17580;50.850;4.504;2023-03-02T12:29:55;16.60;1.00
10192;DHT22;17580;50.850;4.504;2023-03-02T12:32:33;16.80;1.00
10192;DHT22;17580;50.850;4.504;2023-03-02T12:35:08;16.80;1.00
10192;DHT22;17580;50.850;4.504;2023-03-02T12:37:43;16.80;1.00
10192;DHT22;17580;50.850;4.504;2023-03-02T12:40:26;16.80;1.00
10192;DHT22;17580;50.850;4.504;2023-03-02T12:43:08;16.90;1.00
10192;DHT22;17580;50.850;4.504;2023-03-02T12:45:51;16.80;1.00
10192;DHT22;17580;50.850;4.504;2023-03-02T12:48:27;16.80;1.00
10192;DHT22;17580;50.850;4.504;2023-03-02T12:50:58;16.20;1.00
10192;DHT22;17580;50.850;4.504;2023-03-02T12:53:26;15.70;1.00
10192;DHT22;17580;50.850;4.504;2023-03-02T12:55:55;16.40;1.00
10192;DHT22;17580;50.850;4.504;2023-03-02T12:58:24;16.50;1.00
10192;DHT22;17580;50.850;4.504;2023-03-02T13:00:57;16.60;1.00
10192;DHT22;17580;50.850;4.504;2023-03-02T13:03:26;16.90;1.00
10192;DHT22;17580;50.850;4.504;2023-03-02T13:06:00;16.50;1.00
10192;DHT22;17580;50.850;4.504;2023-03-02T13:08:28;16.20;1.00
10192;DHT22;17580;50.850;4.504;2023-03-02T13:11:00;16.30;1.00
10192;DHT22;17580;50.850;4.504;2023-03-02T13:13:34;16.50;1.00
10192;DHT22;17580;50.850;4.504;2023-03-02T13:16:03;16.30;1.00
10192;DHT22;17580;50.850;4.504;2023-03-02T13:18:31;16.30;1.00
10192;DHT22;17580;50.850;4.504;2023-03-02T13:21:00;16.30;1.00
10192;DHT22;17580;50.850;4.504;2023-03-02T13:23:32;16.00;1.00
10192;DHT22;17580;50.850;4.504;2023-03-02T13:26:02;16.10;1.00
10192;DHT22;17580;50.850;4.504;2023-03-02T13:28:31;16.30;1.00
10192;DHT22;17580;50.850;4.504;2023-03-02T13:31:01;16.10;1.00
10192;DHT22;17580;50.850;4.504;2023-03-02T13:33:30;15.90;1.00
10192;DHT22;17580;50.850;4.504;2023-03-02T13:35:57;15.90;1.00
10192;DHT22;17580;50.850;4.504;2023-03-02T13:38:28;15.60;1.00
10192;DHT22;17580;50.850;4.504;2023-03-02T13:40:56;15.30;1.00
10192;DHT22;17580;50.850;4.504;2023-03-02T13:43:37;15.30;1.00
10192;DHT22;17580;50.850;4.504;2023-03-02T13:48:52;15.30;1.00
10192;DHT22;17580;50.850;4.504;2023-03-02T13:51:20;15.60;1.00
10192;DHT22;17580;50.850;4.504;2023-03-02T13:53:52;15.10;1.00
10192;DHT22;17580;50.850;4.504;2023-03-02T13:56:23;14.90;1.00
10192;DHT22;17580;50.850;4.504;2023-03-02T13:58:54;14.60;1.00
10192;DHT22;17580;50.850;4.504;2023-03-02T14:01:21;14.60;1.00
10192;DHT22;17580;50.850;4.504;2023-03-02T14:03:48;14.30;1.00
10192;DHT22;17580;50.850;4.504;2023-03-02T14:06:15;13.70;1.00
10192;DHT22;17580;50.850;4.504;2023-03-02T14:08:43;13.70;1.00
10192;DHT22;17580;50.850;4.504;2023-03-02T14:11:12;13.30;1.00
10192;DHT22;17580;50.850;4.504;2023-03-02T14:13:41;13.30;1.00
10192;DHT22;17580;50.850;4.504;2023-03-02T14:16:12;12.90;1.00
10192;DHT22;17580;50.850;4.504;2023-03-02T14:18:40;12.90;1.00
10192;DHT22;17580;50.850;4.504;2023-03-02T14:21:11;12.90;1.00
10192;DHT22;17580;50.850;4.504;2023-03-02T14:23:39;12.50;1.00
10192;DHT22;17580;50.850;4.504;2023-03-02T14:26:22;12.40;1.00
10192;DHT22;17580;50.850;4.504;2023-03-02T14:28:54;12.60;1.00
10192;DHT22;17580;50.850;4.504;2023-03-02T14:31:22;12.70;1.00
10192;DHT22;17580;50.850;4.504;2023-03-02T14:33:49;12.60;1.00
10192;DHT22;17580;50.850;4.504;2023-03-02T14:36:24;12.50;1.00
10192;DHT22;17580;50.850;4.504;2023-03-02T14:38:53;12.50;1.00
10192;DHT22;17580;50.850;4.504;2023-03-02T14:41:23;12.40;1.00
10192;DHT22;17580;50.850;4.504;2023-03-02T14:43:50;12.50;1.00
10192;DHT22;17580;50.850;4.504;2023-03-02T14:46:17;12.30;1.00
10192;DHT22;17580;50.850;4.504;2023-03-02T14:48:46;12.10;1.00
10192;DHT22;17580;50.850;4.504;2023-03-02T14:51:20;12.10;1.00
10192;DHT22;17580;50.850;4.504;2023-03-02T14:53:48;12.10;1.50
10192;DHT22;17580;50.850;4.504;2023-03-02T14:56:17;12.20;1.40
10192;DHT22;17580;50.850;4.504;2023-03-02T14:58:47;12.00;1.00
10192;DHT22;17580;50.850;4.504;2023-03-02T15:01:14;12.30;1.10
10192;DHT22;17580;50.850;4.504;2023-03-02T15:03:41;12.00;1.00
10192;DHT22;17580;50.850;4.504;2023-03-02T15:06:25;12.00;1.40
10192;DHT22;17580;50.850;4.504;2023-03-02T15:08:52;11.90;1.50
10192;DHT22;17580;50.850;4.504;2023-03-02T15:11:19;12.00;1.40
10192;DHT22;17580;50.850;4.504;2023-03-02T15:13:46;12.10;2.00
10192;DHT22;17580;50.850;4.504;2023-03-02T15:16:14;12.00;2.00
10192;DHT22;17580;50.850;4.504;2023-03-02T15:18:41;12.00;1.20
10192;DHT22;17580;50.850;4.504;2023-03-02T15:21:14;11.90;1.10
10192;DHT22;17580;50.850;4.504;2023-03-02T15:23:42;11.80;1.80
10192;DHT22;17580;50.850;4.504;2023-03-02T15:26:10;11.70;1.40
10192;DHT22;17580;50.850;4.504;2023-03-02T15:28:38;11.70;2.20
10192;DHT22;17580;50.850;4.504;2023-03-02T15:31:06;11.60;1.90
10192;DHT22;17580;50.850;4.504;2023-03-02T15:33:33;11.50;2.10
10192;DHT22;17580;50.850;4.504;2023-03-02T15:36:00;11.40;2.10
10192;DHT22;17580;50.850;4.504;2023-03-02T15:38:28;11.50;2.10
10192;DHT22;17580;50.850;4.504;2023-03-02T15:40:55;11.50;2.40
10192;DHT22;17580;50.850;4.504;2023-03-02T15:43:23;11.30;2.80
10192;DHT22;17580;50.850;4.504;2023-03-02T15:45:50;11.30;3.20
10192;DHT22;17580;50.850;4.504;2023-03-02T15:48:17;11.30;3.40
10192;DHT22;17580;50.850;4.504;2023-03-02T15:50:53;11.30;3.00
10192;DHT22;17580;50.850;4.504;2023-03-02T15:53:20;11.30;3.90
10192;DHT22;17580;50.850;4.504;2023-03-02T15:55:49;11.20;3.40
10192;DHT22;17580;50.850;4.504;2023-03-02T15:58:16;11.30;3.90
10192;DHT22;17580;50.850;4.504;2023-03-02T16:00:43;11.30;3.90
10192;DHT22;17580;50.850;4.504;2023-03-02T16:03:11;11.10;3.40